createdAt,value
2019-05-11T00:00:44.332Z,8.33
2019-05-11T00:03:13.116Z,7.92
2019-05-11T00:05:41.864Z,9.10
2019-05-11T00:08:10.522Z,10.30
2019-05-11T00:10:39.252Z,10.85
2019-05-11T00:13:07.928Z,12.73
2019-05-11T00:15:36.607Z,14.73
2019-05-11T00:18:05.426Z,29.23
2019-05-11T00:20:34.154Z,25.23
2019-05-11T00:23:02.887Z,20.10
2019-05-11T00:25:31.621Z,20.25
2019-05-11T00:28:00.349Z,22.98
2019-05-11T00:30:29.263Z,22.65
2019-05-11T00:32:57.981Z,15.18
2019-05-11T00:35:26.673Z,11.15
2019-05-11T00:37:55.399Z,13.80
2019-05-11T00:40:24.034Z,22.07
2019-05-11T00:42:52.795Z,18.15
2019-05-11T00:45:21.569Z,8.45
2019-05-11T00:47:50.166Z,11.70
2019-05-11T00:50:18.912Z,13.38
2019-05-11T00:52:47.650Z,11.20
2019-05-11T00:55:16.296Z,9.00
2019-05-11T00:57:44.921Z,4.45
2019-05-11T01:00:14.104Z,2.98
2019-05-11T01:02:42.850Z,3.30
2019-05-11T01:05:11.693Z,3.17
2019-05-11T01:07:40.391Z,3.25
2019-05-11T01:10:22.950Z,3.05
2019-05-11T01:12:39.683Z,2.52
2019-05-11T01:15:09.227Z,1.75
2019-05-11T01:17:37.997Z,2.15
2019-05-11T01:20:07.517Z,2.30
2019-05-11T01:22:36.210Z,2.87
2019-05-11T01:25:05.817Z,1.60
2019-05-11T01:27:34.529Z,2.80
2019-05-11T01:30:03.352Z,2.22
2019-05-11T01:32:32.165Z,2.45
2019-05-11T01:35:00.936Z,2.25
2019-05-11T01:37:29.570Z,2.00
2019-05-11T01:39:58.224Z,2.90
2019-05-11T01:42:26.848Z,3.08
2019-05-11T01:44:55.562Z,2.47
2019-05-11T01:47:24.312Z,2.30
2019-05-11T01:49:52.888Z,1.98
2019-05-11T01:52:21.437Z,2.40
2019-05-11T01:54:50.086Z,3.17
2019-05-11T01:57:18.692Z,2.92
2019-05-11T01:59:47.292Z,2.95
2019-05-11T02:02:15.983Z,2.35
2019-05-11T02:04:44.619Z,2.65
2019-05-11T02:07:13.391Z,2.87
2019-05-11T02:09:41.947Z,3.25
2019-05-11T02:12:10.629Z,2.70
2019-05-11T02:14:39.307Z,2.72
2019-05-11T02:17:08.096Z,3.00
2019-05-11T02:19:36.788Z,3.00
2019-05-11T02:22:05.477Z,3.22
2019-05-11T02:24:34.198Z,2.60
2019-05-11T02:27:02.813Z,1.98
2019-05-11T02:29:31.502Z,3.62
2019-05-11T02:32:00.288Z,2.95
2019-05-11T02:34:28.850Z,4.20
2019-05-11T02:36:57.533Z,3.27
2019-05-11T02:39:26.125Z,3.60
2019-05-11T02:41:54.687Z,3.10
2019-05-11T02:44:23.547Z,2.80
2019-05-11T02:46:52.168Z,2.77
2019-05-11T02:49:20.761Z,9.80
2019-05-11T02:51:49.666Z,5.83
2019-05-11T02:54:18.922Z,7.10
2019-05-11T02:56:47.601Z,6.33
2019-05-11T02:59:16.230Z,5.60
2019-05-11T03:01:44.988Z,6.12
2019-05-11T03:04:13.647Z,7.65
2019-05-11T03:06:42.333Z,5.40
2019-05-11T03:09:10.978Z,4.62
2019-05-11T03:11:54.813Z,3.25
2019-05-11T03:14:10.052Z,3.80
2019-05-11T03:16:38.656Z,3.12
2019-05-11T03:19:07.528Z,5.30
2019-05-11T03:21:36.151Z,3.37
2019-05-11T03:24:04.878Z,4.12
2019-05-11T03:26:33.546Z,3.80
2019-05-11T03:29:02.174Z,4.20
2019-05-11T03:31:30.938Z,4.97
2019-05-11T03:33:59.842Z,6.53
2019-05-11T03:36:29.269Z,4.47
2019-05-11T03:38:57.979Z,4.03
2019-05-11T03:41:26.906Z,3.67
2019-05-11T03:43:56.036Z,3.27
2019-05-11T03:46:25.071Z,4.35
2019-05-11T03:48:54.032Z,4.70
2019-05-11T03:51:22.944Z,6.92
2019-05-11T03:53:51.765Z,5.92
2019-05-11T03:56:20.648Z,9.45
2019-05-11T03:58:49.741Z,9.18
2019-05-11T04:01:18.742Z,5.50
2019-05-11T04:03:47.946Z,6.28
2019-05-11T04:06:17.251Z,2.80
2019-05-11T04:08:46.309Z,2.22
2019-05-11T04:11:15.743Z,3.65
2019-05-11T04:13:44.878Z,2.98
2019-05-11T04:16:14.127Z,2.37
2019-05-11T04:18:43.555Z,3.10
2019-05-11T04:21:12.806Z,4.30
2019-05-11T04:23:42.176Z,3.83
2019-05-11T04:26:11.501Z,2.77
2019-05-11T04:28:40.836Z,2.50
2019-05-11T04:31:10.238Z,3.75
2019-05-11T04:33:41.225Z,5.20
2019-05-11T04:36:10.881Z,2.90
2019-05-11T04:38:40.349Z,3.20
2019-05-11T04:41:09.887Z,3.02
2019-05-11T04:43:39.335Z,2.83
2019-05-11T04:46:08.577Z,4.72
2019-05-11T04:48:38.077Z,3.75
2019-05-11T04:51:07.303Z,3.75
2019-05-11T04:53:36.595Z,2.87
2019-05-11T04:56:06.120Z,1.60
2019-05-11T04:58:35.641Z,1.57
2019-05-11T05:01:05.228Z,1.55
2019-05-11T05:03:40.782Z,1.00
2019-05-11T05:06:23.959Z,1.72
2019-05-11T05:08:37.230Z,1.22
2019-05-11T05:11:06.715Z,1.30
2019-05-11T05:13:35.885Z,1.50
2019-05-11T05:16:05.361Z,1.92
2019-05-11T05:18:34.669Z,1.90
2019-05-11T05:21:04.191Z,2.12
2019-05-11T05:23:34.238Z,2.62
2019-05-11T05:26:03.935Z,2.72
2019-05-11T05:28:33.108Z,1.80
2019-05-11T05:31:02.655Z,2.00
2019-05-11T05:33:32.101Z,2.65
2019-05-11T05:36:02.128Z,2.30
2019-05-11T05:38:31.515Z,2.00
2019-05-11T05:41:01.588Z,2.05
2019-05-11T05:43:30.667Z,2.10
2019-05-11T05:45:59.907Z,2.42
2019-05-11T05:48:29.206Z,2.30
2019-05-11T05:50:58.669Z,2.30
2019-05-11T05:53:27.938Z,2.20
2019-05-11T05:55:57.062Z,2.75
2019-05-11T05:58:26.296Z,3.92
2019-05-11T06:00:55.892Z,5.20
2019-05-11T06:03:25.040Z,5.87
2019-05-11T06:05:54.650Z,6.60
2019-05-11T06:08:24.446Z,6.65
2019-05-11T06:10:53.863Z,4.87
2019-05-11T06:13:23.149Z,4.33
2019-05-11T06:15:52.351Z,3.10
2019-05-11T06:18:21.648Z,2.50
2019-05-11T06:20:51.113Z,5.03
2019-05-11T06:23:20.848Z,4.35
2019-05-11T06:25:50.378Z,7.50
2019-05-11T06:28:19.437Z,6.55
2019-05-11T06:30:48.980Z,7.62
2019-05-11T06:33:18.857Z,6.85
2019-05-11T06:35:48.443Z,6.72
2019-05-11T06:38:18.052Z,6.62
2019-05-11T06:40:47.536Z,7.42
2019-05-11T06:43:17.082Z,7.10
2019-05-11T06:45:46.667Z,6.97
2019-05-11T06:48:16.075Z,8.75
2019-05-11T06:50:45.529Z,9.45
2019-05-11T06:53:14.917Z,7.85
2019-05-11T06:55:44.706Z,12.33
2019-05-11T06:58:14.033Z,9.98
2019-05-11T07:00:43.893Z,9.50
2019-05-11T07:03:13.524Z,7.12
2019-05-11T07:05:42.942Z,5.30
2019-05-11T07:08:12.320Z,5.95
2019-05-11T07:10:42.256Z,7.05
2019-05-11T07:13:11.458Z,6.62
2019-05-11T07:15:41.076Z,7.35
2019-05-11T07:18:10.934Z,7.62
2019-05-11T07:20:49.930Z,7.62
2019-05-11T07:23:11.537Z,7.22
2019-05-11T07:25:41.205Z,8.05
2019-05-11T07:28:10.933Z,7.10
2019-05-11T07:30:40.539Z,5.53
2019-05-11T07:33:10.023Z,5.33
2019-05-11T07:35:39.425Z,5.10
2019-05-11T07:38:08.746Z,4.58
2019-05-11T07:40:38.558Z,4.20
2019-05-11T07:43:09.842Z,4.97
2019-05-11T07:45:39.077Z,3.45
2019-05-11T07:48:08.522Z,5.22
2019-05-11T07:50:38.862Z,6.85
2019-05-11T07:53:08.437Z,10.80
2019-05-11T07:55:38.668Z,9.95
2019-05-11T07:58:08.220Z,8.90
2019-05-11T08:00:39.898Z,7.75
2019-05-11T08:03:09.148Z,7.42
2019-05-11T08:05:38.670Z,11.88
2019-05-11T08:08:08.742Z,31.48
2019-05-11T08:10:39.102Z,35.68
2019-05-11T08:13:09.283Z,9.35
2019-05-11T08:15:38.578Z,5.53
2019-05-11T08:18:08.545Z,2.05
2019-05-11T08:20:38.691Z,3.30
2019-05-11T08:23:09.069Z,3.52
2019-05-11T08:25:38.582Z,2.35
2019-05-11T08:28:11.834Z,1.70
2019-05-11T08:30:39.425Z,1.50
2019-05-11T08:33:09.103Z,1.62
2019-05-11T08:35:39.061Z,1.60
2019-05-11T08:38:08.979Z,1.40
2019-05-11T08:40:38.800Z,0.90
2019-05-11T08:43:08.768Z,0.98
2019-05-11T08:45:39.256Z,0.80
2019-05-11T08:48:09.065Z,1.50
2019-05-11T08:50:38.570Z,1.52
2019-05-11T08:53:08.723Z,1.70
2019-05-11T08:55:38.295Z,1.67
2019-05-11T08:58:07.994Z,1.17
2019-05-11T09:00:38.944Z,1.77
2019-05-11T09:03:08.757Z,1.87
2019-05-11T09:05:38.542Z,1.37
2019-05-11T09:08:08.508Z,1.42
2019-05-11T09:10:39.731Z,1.65
2019-05-11T09:13:08.918Z,1.70
2019-05-11T09:15:40.758Z,2.10
2019-05-11T09:18:09.461Z,2.20
2019-05-11T09:20:39.121Z,1.50
2019-05-11T09:23:08.715Z,2.33
2019-05-11T09:25:38.599Z,1.90
2019-05-11T09:28:08.531Z,2.42
2019-05-11T09:30:38.420Z,1.60
2019-05-11T09:33:08.555Z,1.72
2019-05-11T09:35:47.650Z,1.70
2019-05-11T09:38:09.111Z,1.83
2019-05-11T09:40:38.698Z,1.50
2019-05-11T09:43:08.634Z,0.90
2019-05-11T09:45:48.135Z,0.88
2019-05-11T09:48:09.791Z,0.90
2019-05-11T09:50:39.368Z,0.93
2019-05-11T09:53:08.826Z,0.62
2019-05-11T09:55:38.926Z,0.90
2019-05-11T09:58:08.727Z,1.00
2019-05-11T10:00:38.879Z,1.15
2019-05-11T10:03:08.507Z,1.30
2019-05-11T10:05:38.403Z,0.90
2019-05-11T10:08:07.940Z,0.88
2019-05-11T10:10:38.338Z,0.70
2019-05-11T10:13:08.230Z,0.72
2019-05-11T10:15:38.565Z,1.30
2019-05-11T10:18:08.355Z,1.30
2019-05-11T10:20:39.251Z,0.90
2019-05-11T10:23:08.909Z,1.00
2019-05-11T10:25:39.092Z,0.45
2019-05-11T10:28:08.813Z,0.60
2019-05-11T10:30:38.731Z,1.10
2019-05-11T10:33:08.575Z,0.70
2019-05-11T10:35:38.450Z,0.95
2019-05-11T10:38:08.987Z,1.50
2019-05-11T10:40:38.902Z,1.30
2019-05-11T10:43:08.454Z,1.60
2019-05-11T10:45:38.054Z,1.22
2019-05-11T10:48:08.803Z,1.60
2019-05-11T10:50:38.275Z,1.07
2019-05-11T10:53:08.084Z,1.02
2019-05-11T10:55:38.747Z,0.75
2019-05-11T10:58:08.750Z,0.80
2019-05-11T11:00:38.821Z,1.10
2019-05-11T11:03:08.572Z,1.02
2019-05-11T11:05:38.609Z,1.00
2019-05-11T11:08:08.414Z,0.85
2019-05-11T11:10:38.050Z,0.98
2019-05-11T11:13:08.323Z,0.90
2019-05-11T11:15:38.193Z,0.90
2019-05-11T11:18:08.571Z,0.90
2019-05-11T11:20:38.589Z,0.90
2019-05-11T11:23:08.846Z,0.78
2019-05-11T11:25:38.311Z,0.93
2019-05-11T11:28:08.442Z,0.80
2019-05-11T11:30:38.168Z,0.80
2019-05-11T11:33:08.080Z,0.75
2019-05-11T11:35:38.552Z,0.90
2019-05-11T11:38:08.724Z,1.10
2019-05-11T11:40:38.757Z,0.70
2019-05-11T11:43:08.652Z,0.80
2019-05-11T11:45:38.224Z,0.60
2019-05-11T11:48:08.653Z,0.65
2019-05-11T11:50:38.355Z,0.50
2019-05-11T11:53:08.497Z,0.40
2019-05-11T11:55:39.000Z,0.60
2019-05-11T11:58:08.663Z,0.70
2019-05-11T12:00:39.171Z,0.68
2019-05-11T12:03:08.625Z,1.00
2019-05-11T12:05:38.722Z,0.70
2019-05-11T12:08:08.438Z,0.50
2019-05-11T12:10:38.049Z,0.47
2019-05-11T12:13:08.605Z,0.40
2019-05-11T12:15:38.888Z,0.50
2019-05-11T12:18:08.512Z,0.72
2019-05-11T12:20:39.016Z,1.05
2019-05-11T12:23:08.757Z,1.22
2019-05-11T12:25:40.479Z,1.47
2019-05-11T12:28:09.537Z,1.20
2019-05-11T12:30:39.529Z,1.17
2019-05-11T12:33:09.365Z,1.12
2019-05-11T12:35:38.517Z,0.95
2019-05-11T12:38:07.967Z,1.10
2019-05-11T12:40:38.909Z,0.70
2019-05-11T12:43:08.384Z,1.22
2019-05-11T12:45:37.741Z,1.00
2019-05-11T12:48:08.906Z,0.80
2019-05-11T12:50:38.052Z,1.22
2019-05-11T12:53:08.075Z,1.15
2019-05-11T12:55:38.120Z,1.10
2019-05-11T12:58:08.540Z,1.02
2019-05-11T13:00:39.094Z,1.50
2019-05-11T13:03:08.679Z,1.67
2019-05-11T13:05:37.977Z,1.70
2019-05-11T13:08:08.080Z,1.67
2019-05-11T13:10:37.913Z,1.52
2019-05-11T13:13:08.867Z,1.60
2019-05-11T13:15:38.688Z,1.45
2019-05-11T13:18:08.548Z,1.45
2019-05-11T13:20:38.122Z,1.37
2019-05-11T13:23:08.006Z,1.90
2019-05-11T13:25:38.798Z,2.00
2019-05-11T13:28:08.680Z,2.02
2019-05-11T13:30:38.439Z,1.47
2019-05-11T13:33:08.687Z,1.45
2019-05-11T13:35:38.417Z,1.57
2019-05-11T13:38:08.686Z,1.47
2019-05-11T13:40:38.365Z,1.35
2019-05-11T13:43:08.452Z,1.60
2019-05-11T13:45:38.694Z,1.95
2019-05-11T13:48:08.607Z,1.62
2019-05-11T13:50:38.679Z,1.57
2019-05-11T13:53:08.467Z,1.52
2019-05-11T13:55:38.836Z,1.30
2019-05-11T13:58:08.567Z,2.30
2019-05-11T14:00:38.231Z,1.40
2019-05-11T14:03:08.531Z,2.00
2019-05-11T14:05:38.273Z,1.62
2019-05-11T14:08:08.246Z,1.37
2019-05-11T14:10:38.339Z,2.10
2019-05-11T14:13:08.785Z,1.50
2019-05-11T14:15:38.258Z,1.77
2019-05-11T14:18:11.346Z,1.90
2019-05-11T14:20:38.992Z,1.92
2019-05-11T14:23:08.563Z,1.85
2019-05-11T14:25:38.200Z,2.77
2019-05-11T14:28:08.875Z,2.70
2019-05-11T14:30:38.804Z,2.20
2019-05-11T14:33:08.688Z,2.60
2019-05-11T14:35:38.574Z,2.20
2019-05-11T14:38:08.121Z,1.90
2019-05-11T14:40:38.729Z,2.60
2019-05-11T14:43:08.690Z,2.75
2019-05-11T14:45:38.386Z,2.98
2019-05-11T14:48:22.497Z,3.50
2019-05-11T14:50:39.252Z,3.45
2019-05-11T14:53:08.749Z,4.30
2019-05-11T14:55:38.344Z,4.10
2019-05-11T14:58:08.458Z,3.90
2019-05-11T15:00:39.155Z,4.15
2019-05-11T15:03:08.757Z,4.28
2019-05-11T15:05:41.202Z,4.45
2019-05-11T15:08:09.709Z,5.22
2019-05-11T15:10:39.570Z,5.58
2019-05-11T15:13:09.239Z,5.55
2019-05-11T15:15:39.435Z,4.45
2019-05-11T15:18:09.021Z,5.80
2019-05-11T15:20:38.732Z,6.42
2019-05-11T15:23:09.000Z,5.25
2019-05-11T15:25:38.804Z,6.47
2019-05-11T15:28:08.926Z,6.28
2019-05-11T15:30:39.238Z,6.87
2019-05-11T15:33:08.646Z,7.20
2019-05-11T15:35:37.977Z,9.10
2019-05-11T15:38:08.783Z,11.68
2019-05-11T15:40:38.423Z,11.70
2019-05-11T15:43:08.731Z,12.82
2019-05-11T15:45:38.272Z,11.63
2019-05-11T15:48:08.470Z,12.00
2019-05-11T15:50:40.275Z,12.25
2019-05-11T15:53:09.206Z,11.60
2019-05-11T15:55:42.284Z,10.68
2019-05-11T15:58:10.043Z,10.35
2019-05-11T16:00:40.101Z,10.60
2019-05-11T16:03:09.207Z,10.15
2019-05-11T16:05:38.384Z,10.65
2019-05-11T16:08:08.310Z,10.20
2019-05-11T16:10:38.518Z,11.12
2019-05-11T16:13:09.140Z,10.78
2019-05-11T16:15:38.797Z,9.93
2019-05-11T16:18:08.484Z,9.58
2019-05-11T16:20:38.404Z,9.98
2019-05-11T16:23:08.267Z,10.00
2019-05-11T16:25:40.951Z,9.85
2019-05-11T16:28:10.500Z,8.88
2019-05-11T16:30:39.727Z,9.40
2019-05-11T16:33:09.029Z,10.30
2019-05-11T16:35:38.427Z,10.75
2019-05-11T16:38:10.846Z,9.85
2019-05-11T16:40:39.214Z,9.25
2019-05-11T16:43:08.847Z,9.85
2019-05-11T16:45:38.351Z,9.68
2019-05-11T16:48:27.733Z,9.63
2019-05-11T16:50:58.027Z,9.50
2019-05-11T16:53:28.470Z,9.08
2019-05-11T16:55:58.423Z,8.88
2019-05-11T16:58:27.844Z,7.17
2019-05-11T17:00:58.142Z,7.58
2019-05-11T17:03:28.114Z,6.92
2019-05-11T17:05:58.876Z,9.60
2019-05-11T17:08:28.629Z,7.37
2019-05-11T17:10:59.373Z,7.20
2019-05-11T17:13:29.330Z,7.28
2019-05-11T17:15:58.762Z,8.20
2019-05-11T17:18:29.201Z,7.72
2019-05-11T17:20:58.764Z,8.08
2019-05-11T17:23:30.578Z,9.05
2019-05-11T17:25:59.520Z,7.40
2019-05-11T17:28:28.737Z,7.97
2019-05-11T17:30:59.763Z,7.17
2019-05-11T17:33:28.622Z,7.13
2019-05-11T17:35:58.693Z,7.28
2019-05-11T17:38:28.314Z,7.25
2019-05-11T17:40:57.847Z,7.22
2019-05-11T17:43:28.144Z,8.15
2019-05-11T17:45:58.456Z,8.68
2019-05-11T17:48:28.581Z,9.13
2019-05-11T17:50:58.115Z,9.58
2019-05-11T17:53:28.578Z,9.83
2019-05-11T17:55:58.991Z,7.60
2019-05-11T17:58:28.743Z,7.80
2019-05-11T18:00:58.979Z,7.97
2019-05-11T18:03:28.605Z,8.13
2019-05-11T18:05:58.982Z,7.92
2019-05-11T18:08:30.798Z,8.38
2019-05-11T18:10:59.348Z,8.73
2019-05-11T18:13:28.674Z,9.00
2019-05-11T18:15:57.967Z,10.40
2019-05-11T18:18:29.103Z,10.20
2019-05-11T18:20:58.114Z,10.30
2019-05-11T18:23:28.310Z,10.53
2019-05-11T18:25:58.072Z,9.10
2019-05-11T18:28:29.015Z,7.83
2019-05-11T18:30:58.546Z,7.80
2019-05-11T18:33:28.040Z,7.67
2019-05-11T18:35:58.603Z,8.53
2019-05-11T18:38:28.562Z,8.70
2019-05-11T18:40:58.299Z,8.18
2019-05-11T18:43:28.257Z,9.73
2019-05-11T18:45:58.423Z,8.55
2019-05-11T18:48:29.137Z,10.03
2019-05-11T18:50:59.291Z,10.30
2019-05-11T18:53:29.064Z,10.23
2019-05-11T18:55:59.218Z,10.48
2019-05-11T18:58:29.489Z,10.70
2019-05-11T19:00:58.634Z,10.78
2019-05-11T19:03:28.227Z,10.23
2019-05-11T19:05:58.041Z,11.70
2019-05-11T19:08:27.917Z,12.07
2019-05-11T19:10:58.000Z,12.53
2019-05-11T19:13:28.087Z,11.93
2019-05-11T19:15:58.401Z,12.15
2019-05-11T19:18:28.328Z,12.33
2019-05-11T19:20:58.771Z,13.08
2019-05-11T19:23:28.727Z,12.05
2019-05-11T19:25:58.396Z,12.55
2019-05-11T19:28:28.123Z,9.98
2019-05-11T19:30:59.083Z,11.60
2019-05-11T19:33:27.946Z,11.30
2019-05-11T19:35:58.685Z,12.85
2019-05-11T19:38:28.148Z,9.60
2019-05-11T19:40:58.836Z,13.08
2019-05-11T19:43:27.722Z,12.65
2019-05-11T19:45:58.222Z,15.45
2019-05-11T19:48:27.995Z,14.83
2019-05-11T19:51:04.675Z,11.65
2019-05-11T19:53:28.283Z,11.85
2019-05-11T19:55:58.390Z,11.60
2019-05-11T19:58:28.875Z,9.58
2019-05-11T20:00:58.031Z,9.38
2019-05-11T20:03:28.526Z,8.95
2019-05-11T20:05:58.151Z,8.85
2019-05-11T20:08:29.053Z,8.40
2019-05-11T20:10:57.457Z,8.08
2019-05-11T20:13:28.210Z,7.92
2019-05-11T20:15:57.802Z,8.13
2019-05-11T20:18:28.670Z,8.70
2019-05-11T20:20:57.002Z,8.80
2019-05-11T20:23:25.590Z,7.47
2019-05-11T20:25:54.769Z,7.15
2019-05-11T20:28:23.518Z,8.63
2019-05-11T20:30:52.126Z,10.43
2019-05-11T20:33:20.890Z,9.28
2019-05-11T20:35:49.717Z,9.33
2019-05-11T20:38:18.884Z,10.38
2019-05-11T20:40:48.434Z,8.30
2019-05-11T20:43:18.527Z,8.48
2019-05-11T20:45:48.578Z,8.33
2019-05-11T20:48:18.476Z,9.13
2019-05-11T20:50:48.317Z,7.83
2019-05-11T20:53:18.063Z,7.85
2019-05-11T20:55:47.811Z,7.80
2019-05-11T20:58:18.814Z,7.75
2019-05-11T21:00:49.082Z,7.10
2019-05-11T21:03:17.611Z,6.53
2019-05-11T21:05:48.257Z,6.80
2019-05-11T21:08:17.772Z,6.92
2019-05-11T21:10:48.833Z,6.35
2019-05-11T21:13:17.862Z,6.53
2019-05-11T21:15:47.835Z,6.37
2019-05-11T21:18:18.384Z,7.12
2019-05-11T21:20:48.329Z,6.97
2019-05-11T21:23:18.560Z,7.20
2019-05-11T21:25:47.642Z,7.33
2019-05-11T21:28:16.309Z,7.65
2019-05-11T21:30:45.204Z,7.42
2019-05-11T21:33:14.000Z,7.65
2019-05-11T21:35:42.685Z,7.08
2019-05-11T21:38:11.723Z,7.60
2019-05-11T21:40:40.653Z,7.15
2019-05-11T21:43:09.459Z,7.10
2019-05-11T21:45:40.542Z,7.15
2019-05-11T21:48:08.857Z,7.15
2019-05-11T21:50:38.461Z,7.15
2019-05-11T21:53:10.225Z,7.00
2019-05-11T21:55:37.875Z,7.00
2019-05-11T21:58:08.967Z,6.50
2019-05-11T22:00:38.715Z,6.17
2019-05-11T22:03:10.210Z,6.47
2019-05-11T22:05:38.224Z,6.60
2019-05-11T22:08:08.524Z,6.87
2019-05-11T22:10:38.507Z,6.40
2019-05-11T22:13:07.499Z,6.83
2019-05-11T22:15:38.625Z,6.65
2019-05-11T22:18:08.062Z,6.83
2019-05-11T22:20:38.079Z,6.78
2019-05-11T22:23:08.480Z,7.17
2019-05-11T22:25:38.262Z,6.67
2019-05-11T22:28:08.486Z,7.30
2019-05-11T22:30:39.305Z,7.40
2019-05-11T22:33:08.849Z,7.00
2019-05-11T22:35:38.537Z,6.95
2019-05-11T22:38:08.525Z,7.70
2019-05-11T22:40:38.887Z,7.10
2019-05-11T22:43:09.375Z,7.83
2019-05-11T22:45:38.468Z,8.40
2019-05-11T22:48:07.931Z,8.38
2019-05-11T22:50:38.175Z,7.25
2019-05-11T22:53:08.647Z,7.75
2019-05-11T22:55:38.128Z,7.17
2019-05-11T22:58:10.291Z,7.22
2019-05-11T23:00:41.158Z,7.58
2019-05-11T23:03:10.923Z,6.97
2019-05-11T23:05:40.489Z,7.25
2019-05-11T23:08:09.441Z,6.72
2019-05-11T23:10:38.760Z,6.83
2019-05-11T23:13:08.332Z,6.65
2019-05-11T23:15:40.112Z,6.62
2019-05-11T23:18:08.615Z,6.58
2019-05-11T23:20:38.650Z,6.20
2019-05-11T23:23:08.681Z,6.28
2019-05-11T23:25:37.502Z,6.28
2019-05-11T23:28:06.217Z,6.00
2019-05-11T23:30:34.978Z,6.15
2019-05-11T23:33:03.675Z,5.75
2019-05-11T23:35:32.407Z,5.35
2019-05-11T23:38:01.197Z,5.72
2019-05-11T23:40:29.908Z,5.35
2019-05-11T23:42:58.616Z,5.53
2019-05-11T23:45:30.672Z,5.85
2019-05-11T23:47:59.277Z,5.40
2019-05-11T23:50:28.375Z,5.17
2019-05-11T23:53:05.968Z,5.15
2019-05-11T23:55:28.957Z,5.08
2019-05-11T23:57:57.848Z,5.80
